sensor_id;sensor_type;location;lat;lon;timestamp;temperature;humidity
21271;DHT22;10795;50.796;3.860;2022-07-05T00:01:02;14.60;99.90
21271;DHT22;10795;50.796;3.860;2022-07-05T00:03:28;14.40;99.90
21271;DHT22;10795;50.796;3.860;2022-07-05T00:05:55;14.40;99.90
21271;DHT22;10795;50.796;3.860;2022-07-05T00:08:21;14.50;99.90
21271;DHT22;10795;50.796;3.860;2022-07-05T00:10:47;14.60;99.90
21271;DHT22;10795;50.796;3.860;2022-07-05T00:13:14;14.50;99.90
21271;DHT22;10795;50.796;3.860;2022-07-05T00:15:40;14.50;99.90
21271;DHT22;10795;50.796;3.860;2022-07-05T00:18:06;14.40;99.90
21271;DHT22;10795;50.796;3.860;2022-07-05T00:20:31;14.50;99.90
21271;DHT22;10795;50.796;3.860;2022-07-05T00:22:57;14.50;99.90
21271;DHT22;10795;50.796;3.860;2022-07-05T00:25:23;14.40;99.90
21271;DHT22;10795;50.796;3.860;2022-07-05T00:27:49;14.30;99.90
21271;DHT22;10795;50.796;3.860;2022-07-05T00:30:14;14.20;99.90
21271;DHT22;10795;50.796;3.860;2022-07-05T00:32:40;14.20;99.90
21271;DHT22;10795;50.796;3.860;2022-07-05T00:35:07;14.10;99.90
21271;DHT22;10795;50.796;3.860;2022-07-05T00:37:34;14.50;99.90
21271;DHT22;10795;50.796;3.860;2022-07-05T00:40:00;14.30;99.90
21271;DHT22;10795;50.796;3.860;2022-07-05T00:42:26;14.20;99.90
21271;DHT22;10795;50.796;3.860;2022-07-05T00:44:52;14.20;99.90
21271;DHT22;10795;50.796;3.860;2022-07-05T00:47:18;14.00;99.90
21271;DHT22;10795;50.796;3.860;2022-07-05T00:49:44;13.80;99.90
21271;DHT22;10795;50.796;3.860;2022-07-05T00:52:11;13.70;99.90
21271;DHT22;10795;50.796;3.860;2022-07-05T00:54:38;13.80;99.90
21271;DHT22;10795;50.796;3.860;2022-07-05T00:57:05;14.70;99.90
21271;DHT22;10795;50.796;3.860;2022-07-05T00:59:31;15.00;99.90
21271;DHT22;10795;50.796;3.860;2022-07-05T01:01:58;14.60;99.90
21271;DHT22;10795;50.796;3.860;2022-07-05T01:04:24;14.20;99.90
21271;DHT22;10795;50.796;3.860;2022-07-05T01:06:51;14.00;99.90
21271;DHT22;10795;50.796;3.860;2022-07-05T01:09:18;13.90;99.90
21271;DHT22;10795;50.796;3.860;2022-07-05T01:11:49;13.60;99.90
21271;DHT22;10795;50.796;3.860;2022-07-05T01:14:19;13.50;99.90
21271;DHT22;10795;50.796;3.860;2022-07-05T01:16:46;14.20;99.90
21271;DHT22;10795;50.796;3.860;2022-07-05T01:19:12;15.00;99.90
21271;DHT22;10795;50.796;3.860;2022-07-05T01:21:41;14.80;99.90
21271;DHT22;10795;50.796;3.860;2022-07-05T01:24:12;14.20;99.90
21271;DHT22;10795;50.796;3.860;2022-07-05T01:26:39;13.90;99.90
21271;DHT22;10795;50.796;3.860;2022-07-05T01:29:06;13.70;99.90
21271;DHT22;10795;50.796;3.860;2022-07-05T01:31:32;13.70;99.90
21271;DHT22;10795;50.796;3.860;2022-07-05T01:33:58;13.60;99.90
21271;DHT22;10795;50.796;3.860;2022-07-05T01:36:24;13.50;99.90
21271;DHT22;10795;50.796;3.860;2022-07-05T01:38:50;13.60;99.90
21271;DHT22;10795;50.796;3.860;2022-07-05T01:41:16;14.00;99.90
21271;DHT22;10795;50.796;3.860;2022-07-05T01:43:43;14.10;99.90
21271;DHT22;10795;50.796;3.860;2022-07-05T01:46:09;13.70;99.90
21271;DHT22;10795;50.796;3.860;2022-07-05T01:48:39;13.50;99.90
21271;DHT22;10795;50.796;3.860;2022-07-05T01:51:18;13.10;99.90
21271;DHT22;10795;50.796;3.860;2022-07-05T01:53:46;13.00;99.90
21271;DHT22;10795;50.796;3.860;2022-07-05T01:56:13;13.00;99.90
21271;DHT22;10795;50.796;3.860;2022-07-05T01:58:39;12.70;99.90
21271;DHT22;10795;50.796;3.860;2022-07-05T02:01:05;12.60;99.90
21271;DHT22;10795;50.796;3.860;2022-07-05T02:03:31;12.90;99.90
21271;DHT22;10795;50.796;3.860;2022-07-05T02:05:57;13.50;99.90
21271;DHT22;10795;50.796;3.860;2022-07-05T02:08:28;13.90;99.90
21271;DHT22;10795;50.796;3.860;2022-07-05T02:10:55;14.00;99.90
21271;DHT22;10795;50.796;3.860;2022-07-05T02:13:21;15.10;99.90
21271;DHT22;10795;50.796;3.860;2022-07-05T02:15:47;14.70;99.90
21271;DHT22;10795;50.796;3.860;2022-07-05T02:18:13;14.40;99.90
21271;DHT22;10795;50.796;3.860;2022-07-05T02:20:41;14.50;99.90
21271;DHT22;10795;50.796;3.860;2022-07-05T02:23:08;14.10;99.90
21271;DHT22;10795;50.796;3.860;2022-07-05T02:25:36;13.80;99.90
21271;DHT22;10795;50.796;3.860;2022-07-05T02:28:07;13.40;99.90
21271;DHT22;10795;50.796;3.860;2022-07-05T02:30:35;13.10;99.90
21271;DHT22;10795;50.796;3.860;2022-07-05T02:33:01;13.00;99.90
21271;DHT22;10795;50.796;3.860;2022-07-05T02:35:27;13.00;99.90
21271;DHT22;10795;50.796;3.860;2022-07-05T02:37:54;12.80;99.90
21271;DHT22;10795;50.796;3.860;2022-07-05T02:40:20;12.70;99.90
21271;DHT22;10795;50.796;3.860;2022-07-05T02:42:49;12.60;99.90
21271;DHT22;10795;50.796;3.860;2022-07-05T02:45:17;12.60;99.90
21271;DHT22;10795;50.796;3.860;2022-07-05T02:47:45;12.50;99.90
21271;DHT22;10795;50.796;3.860;2022-07-05T02:50:11;12.50;99.90
21271;DHT22;10795;50.796;3.860;2022-07-05T02:52:45;12.60;99.90
21271;DHT22;10795;50.796;3.860;2022-07-05T02:55:12;12.50;99.90
21271;DHT22;10795;50.796;3.860;2022-07-05T02:57:38;12.50;99.90
21271;DHT22;10795;50.796;3.860;2022-07-05T03:00:07;12.40;99.90
21271;DHT22;10795;50.796;3.860;2022-07-05T03:02:47;12.60;99.90
21271;DHT22;10795;50.796;3.860;2022-07-05T03:05:14;12.80;99.90
21271;DHT22;10795;50.796;3.860;2022-07-05T03:07:46;12.90;99.90
21271;DHT22;10795;50.796;3.860;2022-07-05T03:10:12;12.90;99.90
21271;DHT22;10795;50.796;3.860;2022-07-05T03:12:38;12.80;99.90
21271;DHT22;10795;50.796;3.860;2022-07-05T03:15:07;12.50;99.90
21271;DHT22;10795;50.796;3.860;2022-07-05T03:17:33;12.30;99.90
21271;DHT22;10795;50.796;3.860;2022-07-05T03:19:59;12.30;99.90
21271;DHT22;10795;50.796;3.860;2022-07-05T03:22:27;12.40;99.90
21271;DHT22;10795;50.796;3.860;2022-07-05T03:24:52;12.30;99.90
21271;DHT22;10795;50.796;3.860;2022-07-05T03:27:19;12.30;99.90
21271;DHT22;10795;50.796;3.860;2022-07-05T03:29:49;12.30;99.90
21271;DHT22;10795;50.796;3.860;2022-07-05T03:32:15;12.40;99.90
21271;DHT22;10795;50.796;3.860;2022-07-05T03:34:40;12.60;99.90
21271;DHT22;10795;50.796;3.860;2022-07-05T03:37:09;12.40;99.90
21271;DHT22;10795;50.796;3.860;2022-07-05T03:39:35;12.20;99.90
21271;DHT22;10795;50.796;3.860;2022-07-05T03:42:01;12.20;99.90
21271;DHT22;10795;50.796;3.860;2022-07-05T03:44:29;12.00;99.90
21271;DHT22;10795;50.796;3.860;2022-07-05T03:46:59;12.10;99.90
21271;DHT22;10795;50.796;3.860;2022-07-05T03:49:26;12.30;99.90
21271;DHT22;10795;50.796;3.860;2022-07-05T03:51:52;12.30;99.90
21271;DHT22;10795;50.796;3.860;2022-07-05T03:54:18;12.20;99.90
21271;DHT22;10795;50.796;3.860;2022-07-05T03:56:44;12.20;99.90
21271;DHT22;10795;50.796;3.860;2022-07-05T03:59:11;12.20;99.90
21271;DHT22;10795;50.796;3.860;2022-07-05T04:01:37;12.20;99.90
21271;DHT22;10795;50.796;3.860;2022-07-05T04:04:04;12.20;99.90
21271;DHT22;10795;50.796;3.860;2022-07-05T04:06:31;12.50;99.90
21271;DHT22;10795;50.796;3.860;2022-07-05T04:09:00;12.40;99.90
21271;DHT22;10795;50.796;3.860;2022-07-05T04:11:25;12.30;99.90
21271;DHT22;10795;50.796;3.860;2022-07-05T04:13:52;12.40;99.90
21271;DHT22;10795;50.796;3.860;2022-07-05T04:16:18;12.40;99.90
21271;DHT22;10795;50.796;3.860;2022-07-05T04:18:44;12.30;99.90
21271;DHT22;10795;50.796;3.860;2022-07-05T04:21:10;12.40;99.90
21271;DHT22;10795;50.796;3.860;2022-07-05T04:23:36;12.40;99.90
21271;DHT22;10795;50.796;3.860;2022-07-05T04:26:03;12.30;99.90
21271;DHT22;10795;50.796;3.860;2022-07-05T04:28:35;12.30;99.90
21271;DHT22;10795;50.796;3.860;2022-07-05T04:31:02;12.30;99.90
21271;DHT22;10795;50.796;3.860;2022-07-05T04:33:31;12.40;99.90
21271;DHT22;10795;50.796;3.860;2022-07-05T04:35:58;12.40;99.90
21271;DHT22;10795;50.796;3.860;2022-07-05T04:38:23;12.70;99.90
21271;DHT22;10795;50.796;3.860;2022-07-05T04:40:50;13.70;99.90
21271;DHT22;10795;50.796;3.860;2022-07-05T04:43:16;14.60;99.90
21271;DHT22;10795;50.796;3.860;2022-07-05T04:45:43;14.70;99.90
21271;DHT22;10795;50.796;3.860;2022-07-05T04:48:08;14.20;99.90
21271;DHT22;10795;50.796;3.860;2022-07-05T04:50:37;13.90;99.90
21271;DHT22;10795;50.796;3.860;2022-07-05T04:53:04;14.30;99.90
21271;DHT22;10795;50.796;3.860;2022-07-05T04:55:30;15.30;99.90
21271;DHT22;10795;50.796;3.860;2022-07-05T04:57:55;15.70;99.90
21271;DHT22;10795;50.796;3.860;2022-07-05T05:00:21;15.10;99.90
21271;DHT22;10795;50.796;3.860;2022-07-05T05:02:47;14.60;99.90
21271;DHT22;10795;50.796;3.860;2022-07-05T05:05:13;14.50;99.90
21271;DHT22;10795;50.796;3.860;2022-07-05T05:07:43;14.70;99.90
21271;DHT22;10795;50.796;3.860;2022-07-05T05:10:09;14.70;99.90
21271;DHT22;10795;50.796;3.860;2022-07-05T05:12:35;15.40;99.90
21271;DHT22;10795;50.796;3.860;2022-07-05T05:15:01;15.80;99.90
21271;DHT22;10795;50.796;3.860;2022-07-05T05:17:37;15.60;99.90
21271;DHT22;10795;50.796;3.860;2022-07-05T05:20:21;15.90;99.90
21271;DHT22;10795;50.796;3.860;2022-07-05T05:22:47;16.10;99.90
21271;DHT22;10795;50.796;3.860;2022-07-05T05:25:13;16.30;99.90
21271;DHT22;10795;50.796;3.860;2022-07-05T05:27:49;16.20;99.90
21271;DHT22;10795;50.796;3.860;2022-07-05T05:30:17;15.80;99.90
21271;DHT22;10795;50.796;3.860;2022-07-05T05:32:43;15.30;99.90
21271;DHT22;10795;50.796;3.860;2022-07-05T05:35:09;15.10;99.90
21271;DHT22;10795;50.796;3.860;2022-07-05T05:37:54;14.70;99.90
21271;DHT22;10795;50.796;3.860;2022-07-05T05:40:21;15.00;99.90
21271;DHT22;10795;50.796;3.860;2022-07-05T05:42:48;15.30;99.90
21271;DHT22;10795;50.796;3.860;2022-07-05T05:45:14;16.00;99.90
21271;DHT22;10795;50.796;3.860;2022-07-05T05:47:51;16.40;99.90
21271;DHT22;10795;50.796;3.860;2022-07-05T05:50:25;16.40;99.90
21271;DHT22;10795;50.796;3.860;2022-07-05T05:52:51;16.30;99.90
21271;DHT22;10795;50.796;3.860;2022-07-05T05:55:18;16.60;99.90
21271;DHT22;10795;50.796;3.860;2022-07-05T05:57:45;17.00;99.90
21271;DHT22;10795;50.796;3.860;2022-07-05T06:00:13;17.70;99.90
21271;DHT22;10795;50.796;3.860;2022-07-05T06:02:39;18.00;99.90
21271;DHT22;10795;50.796;3.860;2022-07-05T06:05:05;18.40;99.90
21271;DHT22;10795;50.796;3.860;2022-07-05T06:07:31;18.60;99.90
21271;DHT22;10795;50.796;3.860;2022-07-05T06:10:08;18.10;99.90
21271;DHT22;10795;50.796;3.860;2022-07-05T06:12:33;18.30;99.90
21271;DHT22;10795;50.796;3.860;2022-07-05T06:14:59;18.30;99.90
21271;DHT22;10795;50.796;3.860;2022-07-05T06:17:25;18.40;99.90
21271;DHT22;10795;50.796;3.860;2022-07-05T06:19:50;18.10;99.90
21271;DHT22;10795;50.796;3.860;2022-07-05T06:22:16;18.40;99.90
21271;DHT22;10795;50.796;3.860;2022-07-05T06:24:42;18.80;99.90
21271;DHT22;10795;50.796;3.860;2022-07-05T06:27:08;18.70;99.90
21271;DHT22;10795;50.796;3.860;2022-07-05T06:29:34;18.70;99.90
21271;DHT22;10795;50.796;3.860;2022-07-05T06:31:59;18.70;99.90
21271;DHT22;10795;50.796;3.860;2022-07-05T06:34:25;19.40;99.90
21271;DHT22;10795;50.796;3.860;2022-07-05T06:36:51;19.00;99.90
21271;DHT22;10795;50.796;3.860;2022-07-05T06:39:17;18.70;99.90
21271;DHT22;10795;50.796;3.860;2022-07-05T06:41:43;19.40;99.90
21271;DHT22;10795;50.796;3.860;2022-07-05T06:44:08;19.60;99.90
21271;DHT22;10795;50.796;3.860;2022-07-05T06:46:34;18.50;99.90
21271;DHT22;10795;50.796;3.860;2022-07-05T06:49:00;18.60;99.90
21271;DHT22;10795;50.796;3.860;2022-07-05T06:51:26;18.00;99.90
21271;DHT22;10795;50.796;3.860;2022-07-05T06:53:51;17.20;99.90
21271;DHT22;10795;50.796;3.860;2022-07-05T06:56:17;16.70;99.90
21271;DHT22;10795;50.796;3.860;2022-07-05T06:58:43;16.80;99.90
21271;DHT22;10795;50.796;3.860;2022-07-05T07:01:08;17.70;99.90
21271;DHT22;10795;50.796;3.860;2022-07-05T07:03:34;18.10;99.90
21271;DHT22;10795;50.796;3.860;2022-07-05T07:06:00;17.80;99.90
21271;DHT22;10795;50.796;3.860;2022-07-05T07:08:26;17.80;99.90
21271;DHT22;10795;50.796;3.860;2022-07-05T07:11:10;18.50;99.90
21271;DHT22;10795;50.796;3.860;2022-07-05T07:13:36;19.30;99.90
21271;DHT22;10795;50.796;3.860;2022-07-05T07:16:01;18.70;99.90
21271;DHT22;10795;50.796;3.860;2022-07-05T07:18:27;19.40;99.90
21271;DHT22;10795;50.796;3.860;2022-07-05T07:20:53;20.60;99.90
21271;DHT22;10795;50.796;3.860;2022-07-05T07:23:19;20.70;99.90
21271;DHT22;10795;50.796;3.860;2022-07-05T07:25:44;20.00;99.90
21271;DHT22;10795;50.796;3.860;2022-07-05T07:28:10;19.30;99.90
21271;DHT22;10795;50.796;3.860;2022-07-05T07:30:36;20.00;99.90
21271;DHT22;10795;50.796;3.860;2022-07-05T07:33:02;21.10;99.90
21271;DHT22;10795;50.796;3.860;2022-07-05T07:35:28;20.00;99.90
21271;DHT22;10795;50.796;3.860;2022-07-05T07:37:53;20.30;99.90
21271;DHT22;10795;50.796;3.860;2022-07-05T07:40:19;20.70;99.90
21271;DHT22;10795;50.796;3.860;2022-07-05T07:42:45;21.80;99.90
21271;DHT22;10795;50.796;3.860;2022-07-05T07:45:11;22.80;99.90
21271;DHT22;10795;50.796;3.860;2022-07-05T07:47:36;21.80;99.90
21271;DHT22;10795;50.796;3.860;2022-07-05T07:50:04;21.60;99.90
21271;DHT22;10795;50.796;3.860;2022-07-05T07:52:31;21.50;99.90
21271;DHT22;10795;50.796;3.860;2022-07-05T07:55:00;21.50;99.90
21271;DHT22;10795;50.796;3.860;2022-07-05T07:57:26;22.00;99.90
21271;DHT22;10795;50.796;3.860;2022-07-05T07:59:51;22.60;99.90
21271;DHT22;10795;50.796;3.860;2022-07-05T08:02:17;23.00;99.90
21271;DHT22;10795;50.796;3.860;2022-07-05T08:04:47;22.60;99.90
21271;DHT22;10795;50.796;3.860;2022-07-05T08:07:13;22.50;99.90
21271;DHT22;10795;50.796;3.860;2022-07-05T08:09:39;23.10;99.90
21271;DHT22;10795;50.796;3.860;2022-07-05T08:12:05;23.30;99.90
21271;DHT22;10795;50.796;3.860;2022-07-05T08:14:31;23.80;99.90
21271;DHT22;10795;50.796;3.860;2022-07-05T08:16:57;23.50;99.90
21271;DHT22;10795;50.796;3.860;2022-07-05T08:19:24;23.80;99.90
21271;DHT22;10795;50.796;3.860;2022-07-05T08:22:08;23.90;99.90
21271;DHT22;10795;50.796;3.860;2022-07-05T08:24:38;24.80;99.90
21271;DHT22;10795;50.796;3.860;2022-07-05T08:27:05;25.50;99.90
21271;DHT22;10795;50.796;3.860;2022-07-05T08:29:31;25.30;99.90
21271;DHT22;10795;50.796;3.860;2022-07-05T08:31:57;25.60;99.90
21271;DHT22;10795;50.796;3.860;2022-07-05T08:34:22;25.70;99.90
21271;DHT22;10795;50.796;3.860;2022-07-05T08:36:48;26.50;99.90
21271;DHT22;10795;50.796;3.860;2022-07-05T08:39:15;24.60;99.90
21271;DHT22;10795;50.796;3.860;2022-07-05T08:41:43;22.10;99.90
21271;DHT22;10795;50.796;3.860;2022-07-05T08:44:09;23.50;99.90
21271;DHT22;10795;50.796;3.860;2022-07-05T08:46:39;24.00;99.90
21271;DHT22;10795;50.796;3.860;2022-07-05T08:49:06;24.60;99.90
21271;DHT22;10795;50.796;3.860;2022-07-05T08:51:37;26.00;99.90
21271;DHT22;10795;50.796;3.860;2022-07-05T08:54:09;24.20;99.90
21271;DHT22;10795;50.796;3.860;2022-07-05T08:56:35;23.10;99.90
21271;DHT22;10795;50.796;3.860;2022-07-05T08:59:02;23.70;99.90
21271;DHT22;10795;50.796;3.860;2022-07-05T09:01:28;24.00;99.90
21271;DHT22;10795;50.796;3.860;2022-07-05T09:04:01;25.10;99.90
21271;DHT22;10795;50.796;3.860;2022-07-05T09:06:28;26.20;99.90
21271;DHT22;10795;50.796;3.860;2022-07-05T09:08:58;26.10;99.90
21271;DHT22;10795;50.796;3.860;2022-07-05T09:14:02;26.30;99.90
21271;DHT22;10795;50.796;3.860;2022-07-05T09:16:28;26.20;99.90
21271;DHT22;10795;50.796;3.860;2022-07-05T09:18:55;26.10;99.90
21271;DHT22;10795;50.796;3.860;2022-07-05T09:21:26;26.50;99.90
21271;DHT22;10795;50.796;3.860;2022-07-05T09:24:00;26.10;99.90
21271;DHT22;10795;50.796;3.860;2022-07-05T09:26:39;26.60;99.90
21271;DHT22;10795;50.796;3.860;2022-07-05T09:29:16;26.70;99.90
21271;DHT22;10795;50.796;3.860;2022-07-05T09:31:44;25.70;99.90
21271;DHT22;10795;50.796;3.860;2022-07-05T09:34:12;25.20;99.90
21271;DHT22;10795;50.796;3.860;2022-07-05T09:44:44;24.30;99.90
21271;DHT22;10795;50.796;3.860;2022-07-05T09:47:11;24.60;99.90
21271;DHT22;10795;50.796;3.860;2022-07-05T09:49:43;24.60;99.90
21271;DHT22;10795;50.796;3.860;2022-07-05T09:52:09;24.80;99.90
21271;DHT22;10795;50.796;3.860;2022-07-05T09:54:35;25.00;99.90
21271;DHT22;10795;50.796;3.860;2022-07-05T09:57:01;24.70;99.90
21271;DHT22;10795;50.796;3.860;2022-07-05T09:59:26;25.50;99.90
21271;DHT22;10795;50.796;3.860;2022-07-05T10:01:52;25.70;99.90
21271;DHT22;10795;50.796;3.860;2022-07-05T10:04:19;25.50;99.90
21271;DHT22;10795;50.796;3.860;2022-07-05T10:06:45;24.60;99.90
21271;DHT22;10795;50.796;3.860;2022-07-05T10:09:11;25.00;99.90
21271;DHT22;10795;50.796;3.860;2022-07-05T10:11:43;25.80;99.90
21271;DHT22;10795;50.796;3.860;2022-07-05T10:14:18;26.40;99.90
21271;DHT22;10795;50.796;3.860;2022-07-05T10:16:47;27.70;99.90
21271;DHT22;10795;50.796;3.860;2022-07-05T10:19:18;28.20;99.90
21271;DHT22;10795;50.796;3.860;2022-07-05T10:21:45;28.10;99.90
21271;DHT22;10795;50.796;3.860;2022-07-05T10:24:11;26.30;99.90
21271;DHT22;10795;50.796;3.860;2022-07-05T10:26:39;26.60;99.90
21271;DHT22;10795;50.796;3.860;2022-07-05T10:29:06;26.90;99.90
21271;DHT22;10795;50.796;3.860;2022-07-05T10:31:32;27.30;99.90
21271;DHT22;10795;50.796;3.860;2022-07-05T10:33:59;27.40;99.90
21271;DHT22;10795;50.796;3.860;2022-07-05T10:36:33;27.20;99.90
21271;DHT22;10795;50.796;3.860;2022-07-05T10:39:01;27.20;99.90
21271;DHT22;10795;50.796;3.860;2022-07-05T10:41:27;27.20;99.90
21271;DHT22;10795;50.796;3.860;2022-07-05T10:43:55;26.30;99.90
21271;DHT22;10795;50.796;3.860;2022-07-05T10:46:36;25.80;99.90
21271;DHT22;10795;50.796;3.860;2022-07-05T10:49:10;25.20;99.90
21271;DHT22;10795;50.796;3.860;2022-07-05T10:51:36;25.10;99.90
21271;DHT22;10795;50.796;3.860;2022-07-05T10:54:02;26.20;99.90
21271;DHT22;10795;50.796;3.860;2022-07-05T10:56:28;26.70;99.90
21271;DHT22;10795;50.796;3.860;2022-07-05T10:59:08;27.30;99.90
21271;DHT22;10795;50.796;3.860;2022-07-05T11:01:36;28.10;99.90
21271;DHT22;10795;50.796;3.860;2022-07-05T11:06:30;29.10;99.90
21271;DHT22;10795;50.796;3.860;2022-07-05T11:11:32;28.70;99.90
21271;DHT22;10795;50.796;3.860;2022-07-05T11:13:59;28.50;99.90
21271;DHT22;10795;50.796;3.860;2022-07-05T11:18:53;27.10;99.90
21271;DHT22;10795;50.796;3.860;2022-07-05T11:21:29;27.70;99.90
21271;DHT22;10795;50.796;3.860;2022-07-05T11:24:19;27.00;99.90
21271;DHT22;10795;50.796;3.860;2022-07-05T11:26:46;27.70;99.90
21271;DHT22;10795;50.796;3.860;2022-07-05T11:32:21;28.60;99.90
21271;DHT22;10795;50.796;3.860;2022-07-05T11:34:53;27.70;99.90
21271;DHT22;10795;50.796;3.860;2022-07-05T11:37:26;27.40;99.90
21271;DHT22;10795;50.796;3.860;2022-07-05T11:42:45;27.40;99.90
21271;DHT22;10795;50.796;3.860;2022-07-05T11:45:12;28.30;99.90
21271;DHT22;10795;50.796;3.860;2022-07-05T11:47:38;28.50;99.90
21271;DHT22;10795;50.796;3.860;2022-07-05T11:50:04;29.20;99.90
21271;DHT22;10795;50.796;3.860;2022-07-05T11:52:32;28.40;99.90
21271;DHT22;10795;50.796;3.860;2022-07-05T11:54:59;29.30;99.90
21271;DHT22;10795;50.796;3.860;2022-07-05T11:57:25;29.20;99.90
21271;DHT22;10795;50.796;3.860;2022-07-05T11:59:51;28.50;99.90
21271;DHT22;10795;50.796;3.860;2022-07-05T12:02:18;27.50;99.90
21271;DHT22;10795;50.796;3.860;2022-07-05T12:04:48;27.80;99.90
21271;DHT22;10795;50.796;3.860;2022-07-05T12:07:31;27.20;99.90
21271;DHT22;10795;50.796;3.860;2022-07-05T12:09:58;26.90;99.90
21271;DHT22;10795;50.796;3.860;2022-07-05T12:12:43;26.70;99.90
21271;DHT22;10795;50.796;3.860;2022-07-05T12:15:20;26.70;99.90
21271;DHT22;10795;50.796;3.860;2022-07-05T12:17:50;27.40;99.90
21271;DHT22;10795;50.796;3.860;2022-07-05T12:20:24;27.40;99.90
21271;DHT22;10795;50.796;3.860;2022-07-05T12:22:50;27.50;99.90
21271;DHT22;10795;50.796;3.860;2022-07-05T12:25:19;28.20;99.90
21271;DHT22;10795;50.796;3.860;2022-07-05T12:27:46;28.50;99.90
21271;DHT22;10795;50.796;3.860;2022-07-05T12:30:14;28.50;99.90
21271;DHT22;10795;50.796;3.860;2022-07-05T12:33:03;28.70;99.90
21271;DHT22;10795;50.796;3.860;2022-07-05T12:35:43;29.30;99.90
21271;DHT22;10795;50.796;3.860;2022-07-05T12:38:14;29.10;99.90
21271;DHT22;10795;50.796;3.860;2022-07-05T12:40:41;28.80;99.90
21271;DHT22;10795;50.796;3.860;2022-07-05T12:43:18;28.70;99.90
21271;DHT22;10795;50.796;3.860;2022-07-05T12:46:02;29.10;99.90
21271;DHT22;10795;50.796;3.860;2022-07-05T12:48:36;28.70;99.90
21271;DHT22;10795;50.796;3.860;2022-07-05T12:51:03;29.20;99.90
21271;DHT22;10795;50.796;3.860;2022-07-05T12:53:29;28.80;99.90
21271;DHT22;10795;50.796;3.860;2022-07-05T12:56:14;28.90;99.90
21271;DHT22;10795;50.796;3.860;2022-07-05T12:59:01;28.70;99.90
21271;DHT22;10795;50.796;3.860;2022-07-05T13:01:30;29.20;99.90
21271;DHT22;10795;50.796;3.860;2022-07-05T13:04:11;28.30;99.90
21271;DHT22;10795;50.796;3.860;2022-07-05T13:06:54;27.60;99.90
21271;DHT22;10795;50.796;3.860;2022-07-05T13:09:33;28.20;99.90
21271;DHT22;10795;50.796;3.860;2022-07-05T13:14:32;28.20;99.90
21271;DHT22;10795;50.796;3.860;2022-07-05T13:16:57;28.10;99.90
21271;DHT22;10795;50.796;3.860;2022-07-05T13:19:23;27.40;99.90
21271;DHT22;10795;50.796;3.860;2022-07-05T13:21:49;27.30;99.90
21271;DHT22;10795;50.796;3.860;2022-07-05T13:24:14;27.50;99.90
21271;DHT22;10795;50.796;3.860;2022-07-05T13:26:40;27.40;99.90
21271;DHT22;10795;50.796;3.860;2022-07-05T13:29:06;27.10;99.90
21271;DHT22;10795;50.796;3.860;2022-07-05T13:31:32;27.30;99.90
21271;DHT22;10795;50.796;3.860;2022-07-05T13:33:58;26.80;99.90
21271;DHT22;10795;50.796;3.860;2022-07-05T13:36:25;26.20;99.90
21271;DHT22;10795;50.796;3.860;2022-07-05T13:38:51;26.80;99.90
21271;DHT22;10795;50.796;3.860;2022-07-05T13:41:17;26.60;99.90
21271;DHT22;10795;50.796;3.860;2022-07-05T13:43:43;27.30;99.90
21271;DHT22;10795;50.796;3.860;2022-07-05T13:46:11;27.00;99.90
21271;DHT22;10795;50.796;3.860;2022-07-05T13:48:37;26.70;99.90
21271;DHT22;10795;50.796;3.860;2022-07-05T13:51:03;26.50;99.90
21271;DHT22;10795;50.796;3.860;2022-07-05T13:53:29;26.40;99.90
21271;DHT22;10795;50.796;3.860;2022-07-05T13:55:55;26.80;99.90
21271;DHT22;10795;50.796;3.860;2022-07-05T13:58:21;26.90;99.90
21271;DHT22;10795;50.796;3.860;2022-07-05T14:00:46;26.80;99.90
21271;DHT22;10795;50.796;3.860;2022-07-05T14:03:12;26.80;99.90
21271;DHT22;10795;50.796;3.860;2022-07-05T14:05:38;26.70;99.90
21271;DHT22;10795;50.796;3.860;2022-07-05T14:08:04;27.10;99.90
21271;DHT22;10795;50.796;3.860;2022-07-05T14:10:30;27.50;99.90
21271;DHT22;10795;50.796;3.860;2022-07-05T14:12:56;26.50;99.90
21271;DHT22;10795;50.796;3.860;2022-07-05T14:15:21;26.50;99.90
21271;DHT22;10795;50.796;3.860;2022-07-05T14:17:47;26.20;99.90
21271;DHT22;10795;50.796;3.860;2022-07-05T14:20:13;26.50;99.90
21271;DHT22;10795;50.796;3.860;2022-07-05T14:22:39;26.60;99.90
21271;DHT22;10795;50.796;3.860;2022-07-05T14:25:05;26.50;99.90
21271;DHT22;10795;50.796;3.860;2022-07-05T14:27:31;26.70;99.90
21271;DHT22;10795;50.796;3.860;2022-07-05T14:29:57;26.80;99.90
21271;DHT22;10795;50.796;3.860;2022-07-05T14:32:23;26.60;99.90
21271;DHT22;10795;50.796;3.860;2022-07-05T14:34:49;26.30;99.90
21271;DHT22;10795;50.796;3.860;2022-07-05T14:37:14;26.60;99.90
21271;DHT22;10795;50.796;3.860;2022-07-05T14:39:40;27.00;99.90
21271;DHT22;10795;50.796;3.860;2022-07-05T14:42:07;26.20;99.90
21271;DHT22;10795;50.796;3.860;2022-07-05T14:44:32;25.90;99.90
21271;DHT22;10795;50.796;3.860;2022-07-05T14:46:58;25.90;99.90
21271;DHT22;10795;50.796;3.860;2022-07-05T14:49:30;25.50;99.90
21271;DHT22;10795;50.796;3.860;2022-07-05T14:51:56;25.20;99.90
21271;DHT22;10795;50.796;3.860;2022-07-05T14:54:21;25.20;99.90
21271;DHT22;10795;50.796;3.860;2022-07-05T14:56:47;25.50;99.90
21271;DHT22;10795;50.796;3.860;2022-07-05T14:59:13;25.40;99.90
21271;DHT22;10795;50.796;3.860;2022-07-05T15:01:39;25.20;99.90
21271;DHT22;10795;50.796;3.860;2022-07-05T15:04:04;25.20;99.90
21271;DHT22;10795;50.796;3.860;2022-07-05T15:06:30;25.30;99.90
21271;DHT22;10795;50.796;3.860;2022-07-05T15:08:56;24.90;99.90
21271;DHT22;10795;50.796;3.860;2022-07-05T15:11:28;25.00;99.90
21271;DHT22;10795;50.796;3.860;2022-07-05T15:13:55;24.80;99.90
21271;DHT22;10795;50.796;3.860;2022-07-05T15:16:21;24.80;99.90
21271;DHT22;10795;50.796;3.860;2022-07-05T15:18:46;25.00;99.90
21271;DHT22;10795;50.796;3.860;2022-07-05T15:21:12;24.80;99.90
21271;DHT22;10795;50.796;3.860;2022-07-05T15:23:38;25.20;99.90
21271;DHT22;10795;50.796;3.860;2022-07-05T15:26:03;25.30;99.90
21271;DHT22;10795;50.796;3.860;2022-07-05T15:28:29;25.00;99.90
21271;DHT22;10795;50.796;3.860;2022-07-05T15:30:55;24.90;99.90
21271;DHT22;10795;50.796;3.860;2022-07-05T15:33:22;25.10;99.90
21271;DHT22;10795;50.796;3.860;2022-07-05T15:35:53;24.80;99.90
21271;DHT22;10795;50.796;3.860;2022-07-05T15:38:28;24.60;99.90
21271;DHT22;10795;50.796;3.860;2022-07-05T15:40:55;24.40;99.90
21271;DHT22;10795;50.796;3.860;2022-07-05T15:43:22;24.60;99.90
21271;DHT22;10795;50.796;3.860;2022-07-05T15:45:51;24.30;99.90
21271;DHT22;10795;50.796;3.860;2022-07-05T15:48:17;24.00;99.90
21271;DHT22;10795;50.796;3.860;2022-07-05T15:50:42;24.20;99.90
21271;DHT22;10795;50.796;3.860;2022-07-05T15:53:08;24.10;99.90
21271;DHT22;10795;50.796;3.860;2022-07-05T15:55:36;23.60;99.90
21271;DHT22;10795;50.796;3.860;2022-07-05T15:58:02;23.60;99.90
21271;DHT22;10795;50.796;3.860;2022-07-05T16:00:28;24.10;99.90